sensor_id;sensor_type;location;lat;lon;timestamp;P1;durP1;ratioP1;P2;durP2;ratioP2
5776;SDS011;2914;42.668;23.346;2022-07-25T00:02:10;15.53;;;14.23;;
5776;SDS011;2914;42.668;23.346;2022-07-25T00:04:39;17.80;;;16.07;;
5776;SDS011;2914;42.668;23.346;2022-07-25T00:07:08;17.30;;;15.33;;
5776;SDS011;2914;42.668;23.346;2022-07-25T00:09:37;16.77;;;15.23;;
5776;SDS011;2914;42.668;23.346;2022-07-25T00:12:07;15.80;;;14.23;;
5776;SDS011;2914;42.668;23.346;2022-07-25T00:14:36;17.00;;;15.20;;
5776;SDS011;2914;42.668;23.346;2022-07-25T00:17:05;16.07;;;14.53;;
5776;SDS011;2914;42.668;23.346;2022-07-25T00:19:34;15.27;;;13.87;;
5776;SDS011;2914;42.668;23.346;2022-07-25T00:22:03;16.00;;;14.57;;
5776;SDS011;2914;42.668;23.346;2022-07-25T00:24:33;16.20;;;14.50;;
5776;SDS011;2914;42.668;23.346;2022-07-25T00:27:10;14.70;;;13.50;;
5776;SDS011;2914;42.668;23.346;2022-07-25T00:29:39;15.70;;;14.20;;
5776;SDS011;2914;42.668;23.346;2022-07-25T00:32:08;15.40;;;13.90;;
5776;SDS011;2914;42.668;23.346;2022-07-25T00:34:38;15.70;;;14.10;;
5776;SDS011;2914;42.668;23.346;2022-07-25T00:37:07;20.70;;;14.53;;
5776;SDS011;2914;42.668;23.346;2022-07-25T00:39:36;17.10;;;13.73;;
5776;SDS011;2914;42.668;23.346;2022-07-25T00:42:05;16.50;;;15.00;;
5776;SDS011;2914;42.668;23.346;2022-07-25T00:44:34;15.80;;;14.30;;
5776;SDS011;2914;42.668;23.346;2022-07-25T00:47:04;22.17;;;14.90;;
5776;SDS011;2914;42.668;23.346;2022-07-25T00:49:33;18.23;;;15.03;;
5776;SDS011;2914;42.668;23.346;2022-07-25T00:52:02;14.70;;;13.23;;
5776;SDS011;2914;42.668;23.346;2022-07-25T00:54:32;15.90;;;14.30;;
5776;SDS011;2914;42.668;23.346;2022-07-25T00:57:01;17.73;;;14.10;;
5776;SDS011;2914;42.668;23.346;2022-07-25T00:59:30;15.73;;;13.50;;
5776;SDS011;2914;42.668;23.346;2022-07-25T01:01:59;16.00;;;14.40;;
5776;SDS011;2914;42.668;23.346;2022-07-25T01:04:30;18.77;;;14.00;;
5776;SDS011;2914;42.668;23.346;2022-07-25T01:06:59;15.93;;;14.43;;
5776;SDS011;2914;42.668;23.346;2022-07-25T01:09:29;17.97;;;14.83;;
5776;SDS011;2914;42.668;23.346;2022-07-25T01:11:58;15.50;;;14.00;;
5776;SDS011;2914;42.668;23.346;2022-07-25T01:14:27;18.20;;;13.33;;
5776;SDS011;2914;42.668;23.346;2022-07-25T01:16:56;21.20;;;13.63;;
5776;SDS011;2914;42.668;23.346;2022-07-25T01:19:25;17.80;;;15.60;;
5776;SDS011;2914;42.668;23.346;2022-07-25T01:21:54;14.97;;;13.67;;
5776;SDS011;2914;42.668;23.346;2022-07-25T01:24:23;19.77;;;13.70;;
5776;SDS011;2914;42.668;23.346;2022-07-25T01:26:53;20.77;;;15.03;;
5776;SDS011;2914;42.668;23.346;2022-07-25T01:29:22;18.73;;;16.03;;
5776;SDS011;2914;42.668;23.346;2022-07-25T01:31:51;17.50;;;15.80;;
5776;SDS011;2914;42.668;23.346;2022-07-25T01:34:20;20.13;;;16.50;;
5776;SDS011;2914;42.668;23.346;2022-07-25T01:36:49;25.17;;;15.93;;
5776;SDS011;2914;42.668;23.346;2022-07-25T01:39:19;17.07;;;15.57;;
5776;SDS011;2914;42.668;23.346;2022-07-25T01:41:48;17.97;;;15.60;;
5776;SDS011;2914;42.668;23.346;2022-07-25T01:44:17;18.93;;;15.87;;
5776;SDS011;2914;42.668;23.346;2022-07-25T01:46:46;23.60;;;16.13;;
5776;SDS011;2914;42.668;23.346;2022-07-25T01:49:15;16.63;;;15.13;;
5776;SDS011;2914;42.668;23.346;2022-07-25T01:51:44;16.17;;;14.70;;
5776;SDS011;2914;42.668;23.346;2022-07-25T01:54:13;16.37;;;14.80;;
5776;SDS011;2914;42.668;23.346;2022-07-25T01:56:43;20.10;;;15.63;;
5776;SDS011;2914;42.668;23.346;2022-07-25T01:59:12;18.07;;;16.37;;
5776;SDS011;2914;42.668;23.346;2022-07-25T02:01:42;17.07;;;15.40;;
5776;SDS011;2914;42.668;23.346;2022-07-25T02:04:11;16.50;;;14.80;;
5776;SDS011;2914;42.668;23.346;2022-07-25T02:06:40;17.73;;;16.10;;
5776;SDS011;2914;42.668;23.346;2022-07-25T02:09:09;18.17;;;16.30;;
5776;SDS011;2914;42.668;23.346;2022-07-25T02:11:38;17.17;;;15.47;;
5776;SDS011;2914;42.668;23.346;2022-07-25T02:14:07;19.80;;;16.33;;
5776;SDS011;2914;42.668;23.346;2022-07-25T02:16:36;18.47;;;16.50;;
5776;SDS011;2914;42.668;23.346;2022-07-25T02:19:05;17.37;;;15.40;;
5776;SDS011;2914;42.668;23.346;2022-07-25T02:21:34;17.83;;;16.20;;
5776;SDS011;2914;42.668;23.346;2022-07-25T02:24:03;16.93;;;15.47;;
5776;SDS011;2914;42.668;23.346;2022-07-25T02:26:33;19.87;;;15.73;;
5776;SDS011;2914;42.668;23.346;2022-07-25T02:29:02;17.60;;;15.73;;
5776;SDS011;2914;42.668;23.346;2022-07-25T02:31:31;19.43;;;15.37;;
5776;SDS011;2914;42.668;23.346;2022-07-25T02:34:00;17.43;;;15.80;;
5776;SDS011;2914;42.668;23.346;2022-07-25T02:36:30;17.37;;;15.83;;
5776;SDS011;2914;42.668;23.346;2022-07-25T02:38:59;24.20;;;15.97;;
5776;SDS011;2914;42.668;23.346;2022-07-25T02:41:28;18.67;;;16.80;;
5776;SDS011;2914;42.668;23.346;2022-07-25T02:43:57;21.90;;;16.10;;
5776;SDS011;2914;42.668;23.346;2022-07-25T02:46:27;16.97;;;15.43;;
5776;SDS011;2914;42.668;23.346;2022-07-25T02:48:56;18.27;;;15.90;;
5776;SDS011;2914;42.668;23.346;2022-07-25T02:51:25;20.30;;;16.47;;
5776;SDS011;2914;42.668;23.346;2022-07-25T02:53:54;18.10;;;16.17;;
5776;SDS011;2914;42.668;23.346;2022-07-25T02:56:23;18.30;;;16.50;;
5776;SDS011;2914;42.668;23.346;2022-07-25T02:59:01;17.20;;;15.47;;
5776;SDS011;2914;42.668;23.346;2022-07-25T03:01:30;22.03;;;15.80;;
5776;SDS011;2914;42.668;23.346;2022-07-25T03:03:59;19.57;;;15.33;;
5776;SDS011;2914;42.668;23.346;2022-07-25T03:06:28;15.80;;;14.30;;
5776;SDS011;2914;42.668;23.346;2022-07-25T03:08:57;15.80;;;14.27;;
5776;SDS011;2914;42.668;23.346;2022-07-25T03:11:27;15.83;;;13.40;;
5776;SDS011;2914;42.668;23.346;2022-07-25T03:13:56;15.07;;;13.57;;
5776;SDS011;2914;42.668;23.346;2022-07-25T03:16:25;16.67;;;13.93;;
5776;SDS011;2914;42.668;23.346;2022-07-25T03:18:54;14.70;;;13.03;;
5776;SDS011;2914;42.668;23.346;2022-07-25T03:21:23;16.23;;;13.47;;
5776;SDS011;2914;42.668;23.346;2022-07-25T03:23:52;14.40;;;13.00;;
5776;SDS011;2914;42.668;23.346;2022-07-25T03:26:21;17.00;;;13.73;;
5776;SDS011;2914;42.668;23.346;2022-07-25T03:28:50;26.40;;;13.50;;
5776;SDS011;2914;42.668;23.346;2022-07-25T03:31:19;28.43;;;13.60;;
5776;SDS011;2914;42.668;23.346;2022-07-25T03:33:48;16.23;;;12.90;;
5776;SDS011;2914;42.668;23.346;2022-07-25T03:36:17;13.77;;;12.40;;
5776;SDS011;2914;42.668;23.346;2022-07-25T03:38:46;13.63;;;12.20;;
5776;SDS011;2914;42.668;23.346;2022-07-25T03:41:15;16.73;;;12.10;;
5776;SDS011;2914;42.668;23.346;2022-07-25T03:43:44;14.93;;;11.20;;
5776;SDS011;2914;42.668;23.346;2022-07-25T03:46:14;13.23;;;12.00;;
5776;SDS011;2914;42.668;23.346;2022-07-25T03:48:43;15.23;;;12.30;;
5776;SDS011;2914;42.668;23.346;2022-07-25T03:51:12;12.50;;;11.40;;
5776;SDS011;2914;42.668;23.346;2022-07-25T03:53:41;16.30;;;11.90;;
5776;SDS011;2914;42.668;23.346;2022-07-25T03:56:28;12.80;;;11.40;;
5776;SDS011;2914;42.668;23.346;2022-07-25T03:58:58;12.10;;;11.00;;
5776;SDS011;2914;42.668;23.346;2022-07-25T04:01:27;14.27;;;11.23;;
5776;SDS011;2914;42.668;23.346;2022-07-25T04:03:56;13.90;;;12.10;;
5776;SDS011;2914;42.668;23.346;2022-07-25T04:06:26;12.87;;;11.60;;
5776;SDS011;2914;42.668;23.346;2022-07-25T04:08:55;13.10;;;10.93;;
5776;SDS011;2914;42.668;23.346;2022-07-25T04:11:25;22.73;;;11.80;;
5776;SDS011;2914;42.668;23.346;2022-07-25T04:13:56;15.70;;;12.13;;
5776;SDS011;2914;42.668;23.346;2022-07-25T04:16:25;13.63;;;10.60;;
5776;SDS011;2914;42.668;23.346;2022-07-25T04:18:55;12.27;;;11.00;;
5776;SDS011;2914;42.668;23.346;2022-07-25T04:21:24;11.90;;;10.80;;
5776;SDS011;2914;42.668;23.346;2022-07-25T04:23:54;14.70;;;10.20;;
5776;SDS011;2914;42.668;23.346;2022-07-25T04:26:23;11.37;;;10.27;;
5776;SDS011;2914;42.668;23.346;2022-07-25T04:28:52;18.70;;;11.23;;
5776;SDS011;2914;42.668;23.346;2022-07-25T04:31:29;11.37;;;10.27;;
5776;SDS011;2914;42.668;23.346;2022-07-25T04:33:58;11.33;;;10.33;;
5776;SDS011;2914;42.668;23.346;2022-07-25T04:36:27;11.37;;;10.37;;
5776;SDS011;2914;42.668;23.346;2022-07-25T04:38:57;11.13;;;9.87;;
5776;SDS011;2914;42.668;23.346;2022-07-25T04:41:26;13.80;;;9.63;;
5776;SDS011;2914;42.668;23.346;2022-07-25T04:43:55;10.87;;;9.87;;
5776;SDS011;2914;42.668;23.346;2022-07-25T04:46:24;11.23;;;10.23;;
5776;SDS011;2914;42.668;23.346;2022-07-25T04:48:53;10.57;;;9.60;;
5776;SDS011;2914;42.668;23.346;2022-07-25T04:51:22;10.50;;;9.40;;
5776;SDS011;2914;42.668;23.346;2022-07-25T04:53:51;12.30;;;10.00;;
5776;SDS011;2914;42.668;23.346;2022-07-25T04:56:20;15.63;;;10.57;;
5776;SDS011;2914;42.668;23.346;2022-07-25T04:58:49;10.40;;;9.50;;
5776;SDS011;2914;42.668;23.346;2022-07-25T05:01:18;10.70;;;9.80;;
5776;SDS011;2914;42.668;23.346;2022-07-25T05:03:47;11.20;;;10.00;;
5776;SDS011;2914;42.668;23.346;2022-07-25T05:06:17;10.13;;;9.33;;
5776;SDS011;2914;42.668;23.346;2022-07-25T05:08:46;10.67;;;9.57;;
5776;SDS011;2914;42.668;23.346;2022-07-25T05:11:15;13.50;;;10.10;;
5776;SDS011;2914;42.668;23.346;2022-07-25T05:13:45;9.97;;;8.90;;
5776;SDS011;2914;42.668;23.346;2022-07-25T05:16:14;18.30;;;9.53;;
5776;SDS011;2914;42.668;23.346;2022-07-25T05:18:43;12.00;;;9.47;;
5776;SDS011;2914;42.668;23.346;2022-07-25T05:21:12;10.13;;;9.23;;
5776;SDS011;2914;42.668;23.346;2022-07-25T05:23:41;10.43;;;9.43;;
5776;SDS011;2914;42.668;23.346;2022-07-25T05:26:19;10.20;;;9.27;;
5776;SDS011;2914;42.668;23.346;2022-07-25T05:28:48;11.83;;;9.13;;
5776;SDS011;2914;42.668;23.346;2022-07-25T05:31:17;9.83;;;9.03;;
5776;SDS011;2914;42.668;23.346;2022-07-25T05:33:46;10.00;;;8.70;;
5776;SDS011;2914;42.668;23.346;2022-07-25T05:36:15;10.10;;;9.10;;
5776;SDS011;2914;42.668;23.346;2022-07-25T05:38:45;22.90;;;10.60;;
5776;SDS011;2914;42.668;23.346;2022-07-25T05:41:23;15.07;;;8.33;;
5776;SDS011;2914;42.668;23.346;2022-07-25T05:44:04;14.10;;;8.83;;
5776;SDS011;2914;42.668;23.346;2022-07-25T05:46:37;21.73;;;9.77;;
5776;SDS011;2914;42.668;23.346;2022-07-25T05:49:06;9.90;;;9.10;;
5776;SDS011;2914;42.668;23.346;2022-07-25T05:51:36;10.53;;;9.53;;
5776;SDS011;2914;42.668;23.346;2022-07-25T05:54:06;10.57;;;9.30;;
5776;SDS011;2914;42.668;23.346;2022-07-25T05:56:35;9.63;;;8.57;;
5776;SDS011;2914;42.668;23.346;2022-07-25T05:59:04;12.10;;;9.60;;
5776;SDS011;2914;42.668;23.346;2022-07-25T06:01:33;16.47;;;9.83;;
5776;SDS011;2914;42.668;23.346;2022-07-25T06:04:02;10.20;;;9.40;;
5776;SDS011;2914;42.668;23.346;2022-07-25T06:06:31;13.00;;;9.67;;
5776;SDS011;2914;42.668;23.346;2022-07-25T06:09:00;10.37;;;9.20;;
5776;SDS011;2914;42.668;23.346;2022-07-25T06:11:30;12.17;;;8.80;;
5776;SDS011;2914;42.668;23.346;2022-07-25T06:13:59;9.57;;;8.50;;
5776;SDS011;2914;42.668;23.346;2022-07-25T06:16:28;9.70;;;8.73;;
5776;SDS011;2914;42.668;23.346;2022-07-25T06:18:57;13.03;;;9.40;;
5776;SDS011;2914;42.668;23.346;2022-07-25T06:21:26;10.10;;;9.07;;
5776;SDS011;2914;42.668;23.346;2022-07-25T06:23:55;9.40;;;7.90;;
5776;SDS011;2914;42.668;23.346;2022-07-25T06:26:24;9.30;;;8.70;;
5776;SDS011;2914;42.668;23.346;2022-07-25T06:28:53;10.03;;;9.13;;
5776;SDS011;2914;42.668;23.346;2022-07-25T06:31:22;10.10;;;8.20;;
5776;SDS011;2914;42.668;23.346;2022-07-25T06:33:51;15.73;;;9.20;;
5776;SDS011;2914;42.668;23.346;2022-07-25T06:36:23;10.33;;;9.40;;
5776;SDS011;2914;42.668;23.346;2022-07-25T06:38:52;8.30;;;7.70;;
5776;SDS011;2914;42.668;23.346;2022-07-25T06:41:21;12.50;;;8.67;;
5776;SDS011;2914;42.668;23.346;2022-07-25T06:43:50;12.00;;;9.40;;
5776;SDS011;2914;42.668;23.346;2022-07-25T06:46:19;11.53;;;8.60;;
5776;SDS011;2914;42.668;23.346;2022-07-25T06:48:49;11.23;;;8.83;;
5776;SDS011;2914;42.668;23.346;2022-07-25T06:51:18;10.53;;;9.73;;
5776;SDS011;2914;42.668;23.346;2022-07-25T06:53:48;10.60;;;9.50;;
5776;SDS011;2914;42.668;23.346;2022-07-25T06:56:18;13.10;;;8.77;;
5776;SDS011;2914;42.668;23.346;2022-07-25T06:58:47;9.47;;;8.70;;
5776;SDS011;2914;42.668;23.346;2022-07-25T07:01:18;18.07;;;8.80;;
5776;SDS011;2914;42.668;23.346;2022-07-25T07:03:47;11.00;;;9.60;;
5776;SDS011;2914;42.668;23.346;2022-07-25T07:06:16;11.23;;;9.97;;
5776;SDS011;2914;42.668;23.346;2022-07-25T07:08:45;10.40;;;9.33;;
5776;SDS011;2914;42.668;23.346;2022-07-25T07:11:14;14.13;;;9.67;;
5776;SDS011;2914;42.668;23.346;2022-07-25T07:13:43;13.97;;;9.47;;
5776;SDS011;2914;42.668;23.346;2022-07-25T07:16:12;9.57;;;8.77;;
5776;SDS011;2914;42.668;23.346;2022-07-25T07:18:42;10.23;;;9.40;;
5776;SDS011;2914;42.668;23.346;2022-07-25T07:21:11;10.90;;;9.23;;
5776;SDS011;2914;42.668;23.346;2022-07-25T07:23:40;11.53;;;9.60;;
5776;SDS011;2914;42.668;23.346;2022-07-25T07:26:09;9.37;;;8.57;;
5776;SDS011;2914;42.668;23.346;2022-07-25T07:28:38;20.90;;;9.27;;
5776;SDS011;2914;42.668;23.346;2022-07-25T07:31:07;9.23;;;8.43;;
5776;SDS011;2914;42.668;23.346;2022-07-25T07:33:36;12.70;;;10.23;;
5776;SDS011;2914;42.668;23.346;2022-07-25T07:36:06;21.83;;;9.80;;
5776;SDS011;2914;42.668;23.346;2022-07-25T07:38:35;10.97;;;9.97;;
5776;SDS011;2914;42.668;23.346;2022-07-25T07:41:05;11.27;;;9.80;;
5776;SDS011;2914;42.668;23.346;2022-07-25T07:43:34;11.33;;;8.70;;
5776;SDS011;2914;42.668;23.346;2022-07-25T07:46:03;9.60;;;8.80;;
5776;SDS011;2914;42.668;23.346;2022-07-25T07:48:41;10.80;;;9.70;;
5776;SDS011;2914;42.668;23.346;2022-07-25T07:51:10;10.00;;;9.20;;
5776;SDS011;2914;42.668;23.346;2022-07-25T07:53:39;10.30;;;9.40;;
5776;SDS011;2914;42.668;23.346;2022-07-25T07:56:26;10.57;;;9.67;;
5776;SDS011;2914;42.668;23.346;2022-07-25T07:58:55;10.07;;;9.13;;
5776;SDS011;2914;42.668;23.346;2022-07-25T08:01:24;10.33;;;9.53;;
5776;SDS011;2914;42.668;23.346;2022-07-25T08:03:53;13.00;;;10.27;;
5776;SDS011;2914;42.668;23.346;2022-07-25T08:06:22;13.30;;;9.90;;
5776;SDS011;2914;42.668;23.346;2022-07-25T08:08:53;9.47;;;8.77;;
5776;SDS011;2914;42.668;23.346;2022-07-25T08:11:22;16.00;;;9.30;;
5776;SDS011;2914;42.668;23.346;2022-07-25T08:13:51;9.77;;;8.90;;
5776;SDS011;2914;42.668;23.346;2022-07-25T08:16:20;13.57;;;9.70;;
5776;SDS011;2914;42.668;23.346;2022-07-25T08:18:49;9.03;;;8.20;;
5776;SDS011;2914;42.668;23.346;2022-07-25T08:21:19;10.17;;;9.30;;
5776;SDS011;2914;42.668;23.346;2022-07-25T08:23:48;9.47;;;8.80;;
5776;SDS011;2914;42.668;23.346;2022-07-25T08:26:17;10.20;;;9.30;;
5776;SDS011;2914;42.668;23.346;2022-07-25T08:28:46;9.13;;;8.43;;
5776;SDS011;2914;42.668;23.346;2022-07-25T08:31:15;10.17;;;9.23;;
5776;SDS011;2914;42.668;23.346;2022-07-25T08:33:44;11.00;;;9.77;;
5776;SDS011;2914;42.668;23.346;2022-07-25T08:36:13;12.50;;;9.20;;
5776;SDS011;2914;42.668;23.346;2022-07-25T08:38:42;11.57;;;9.63;;
5776;SDS011;2914;42.668;23.346;2022-07-25T08:41:11;10.13;;;9.10;;
5776;SDS011;2914;42.668;23.346;2022-07-25T08:43:40;10.70;;;9.80;;
5776;SDS011;2914;42.668;23.346;2022-07-25T08:46:12;11.00;;;10.20;;
5776;SDS011;2914;42.668;23.346;2022-07-25T08:48:42;10.87;;;9.90;;
5776;SDS011;2914;42.668;23.346;2022-07-25T08:51:11;12.67;;;10.00;;
5776;SDS011;2914;42.668;23.346;2022-07-25T08:53:41;10.50;;;9.40;;
5776;SDS011;2914;42.668;23.346;2022-07-25T08:56:11;10.87;;;9.87;;
5776;SDS011;2914;42.668;23.346;2022-07-25T08:58:40;11.07;;;9.07;;
5776;SDS011;2914;42.668;23.346;2022-07-25T09:01:09;9.87;;;9.27;;
5776;SDS011;2914;42.668;23.346;2022-07-25T09:03:39;12.40;;;9.40;;
5776;SDS011;2914;42.668;23.346;2022-07-25T09:06:13;10.90;;;9.87;;
5776;SDS011;2914;42.668;23.346;2022-07-25T09:08:52;13.30;;;10.13;;
5776;SDS011;2914;42.668;23.346;2022-07-25T09:11:26;10.20;;;9.40;;
5776;SDS011;2914;42.668;23.346;2022-07-25T09:13:57;10.60;;;9.70;;
5776;SDS011;2914;42.668;23.346;2022-07-25T09:16:36;9.30;;;8.60;;
5776;SDS011;2914;42.668;23.346;2022-07-25T09:19:07;10.50;;;9.40;;
5776;SDS011;2914;42.668;23.346;2022-07-25T09:21:38;13.53;;;9.47;;
5776;SDS011;2914;42.668;23.346;2022-07-25T09:24:09;17.77;;;9.00;;
5776;SDS011;2914;42.668;23.346;2022-07-25T09:26:44;9.07;;;8.20;;
5776;SDS011;2914;42.668;23.346;2022-07-25T09:29:15;9.73;;;8.73;;
5776;SDS011;2914;42.668;23.346;2022-07-25T09:31:45;10.67;;;9.57;;
5776;SDS011;2914;42.668;23.346;2022-07-25T09:34:28;9.90;;;8.97;;
5776;SDS011;2914;42.668;23.346;2022-07-25T09:36:59;10.20;;;9.40;;
5776;SDS011;2914;42.668;23.346;2022-07-25T09:39:37;10.00;;;9.27;;
5776;SDS011;2914;42.668;23.346;2022-07-25T09:42:18;9.90;;;9.20;;
5776;SDS011;2914;42.668;23.346;2022-07-25T09:44:59;10.07;;;9.30;;
5776;SDS011;2914;42.668;23.346;2022-07-25T09:47:31;9.70;;;8.80;;
5776;SDS011;2914;42.668;23.346;2022-07-25T09:50:03;13.17;;;9.20;;
5776;SDS011;2914;42.668;23.346;2022-07-25T09:52:34;12.13;;;8.87;;
5776;SDS011;2914;42.668;23.346;2022-07-25T09:55:05;10.30;;;9.20;;
5776;SDS011;2914;42.668;23.346;2022-07-25T09:57:36;10.13;;;9.13;;
5776;SDS011;2914;42.668;23.346;2022-07-25T10:00:17;10.40;;;8.93;;
5776;SDS011;2914;42.668;23.346;2022-07-25T10:02:49;10.93;;;9.23;;
5776;SDS011;2914;42.668;23.346;2022-07-25T10:05:37;9.30;;;8.60;;
5776;SDS011;2914;42.668;23.346;2022-07-25T10:08:11;9.37;;;8.67;;
5776;SDS011;2914;42.668;23.346;2022-07-25T10:10:41;9.90;;;8.60;;
5776;SDS011;2914;42.668;23.346;2022-07-25T10:13:10;9.03;;;8.37;;
5776;SDS011;2914;42.668;23.346;2022-07-25T10:15:47;8.60;;;7.90;;
5776;SDS011;2914;42.668;23.346;2022-07-25T10:18:19;9.40;;;8.53;;
5776;SDS011;2914;42.668;23.346;2022-07-25T10:20:51;9.27;;;8.37;;
5776;SDS011;2914;42.668;23.346;2022-07-25T10:23:22;9.30;;;8.50;;
5776;SDS011;2914;42.668;23.346;2022-07-25T10:26:03;9.00;;;8.20;;
5776;SDS011;2914;42.668;23.346;2022-07-25T10:28:40;8.57;;;7.90;;
5776;SDS011;2914;42.668;23.346;2022-07-25T10:31:18;11.43;;;9.83;;
5776;SDS011;2914;42.668;23.346;2022-07-25T10:33:53;12.73;;;8.50;;
5776;SDS011;2914;42.668;23.346;2022-07-25T10:36:24;9.03;;;8.20;;
5776;SDS011;2914;42.668;23.346;2022-07-25T10:38:58;9.67;;;8.83;;
5776;SDS011;2914;42.668;23.346;2022-07-25T10:41:37;9.90;;;9.00;;
5776;SDS011;2914;42.668;23.346;2022-07-25T10:44:10;10.33;;;8.70;;
5776;SDS011;2914;42.668;23.346;2022-07-25T10:46:42;8.90;;;8.30;;
5776;SDS011;2914;42.668;23.346;2022-07-25T10:49:17;9.40;;;8.50;;
5776;SDS011;2914;42.668;23.346;2022-07-25T10:51:53;9.43;;;8.70;;
5776;SDS011;2914;42.668;23.346;2022-07-25T10:54:33;8.53;;;7.87;;
5776;SDS011;2914;42.668;23.346;2022-07-25T10:57:04;7.90;;;7.40;;
5776;SDS011;2914;42.668;23.346;2022-07-25T10:59:35;8.90;;;8.23;;
5776;SDS011;2914;42.668;23.346;2022-07-25T11:02:06;8.80;;;8.10;;
5776;SDS011;2914;42.668;23.346;2022-07-25T11:04:39;8.30;;;7.57;;
5776;SDS011;2914;42.668;23.346;2022-07-25T11:07:09;11.23;;;8.23;;
5776;SDS011;2914;42.668;23.346;2022-07-25T11:09:39;8.27;;;7.67;;
5776;SDS011;2914;42.668;23.346;2022-07-25T11:12:12;8.00;;;7.30;;
5776;SDS011;2914;42.668;23.346;2022-07-25T11:14:42;10.33;;;8.27;;
5776;SDS011;2914;42.668;23.346;2022-07-25T11:17:14;7.97;;;7.27;;
5776;SDS011;2914;42.668;23.346;2022-07-25T11:19:53;7.93;;;7.13;;
5776;SDS011;2914;42.668;23.346;2022-07-25T11:22:23;7.67;;;6.97;;
5776;SDS011;2914;42.668;23.346;2022-07-25T11:24:53;8.03;;;7.37;;
5776;SDS011;2914;42.668;23.346;2022-07-25T11:27:23;7.87;;;7.23;;
5776;SDS011;2914;42.668;23.346;2022-07-25T11:30:03;8.30;;;7.70;;
5776;SDS011;2914;42.668;23.346;2022-07-25T11:32:37;8.00;;;7.40;;
5776;SDS011;2914;42.668;23.346;2022-07-25T11:35:08;9.03;;;7.87;;
5776;SDS011;2914;42.668;23.346;2022-07-25T11:37:39;7.70;;;7.07;;
5776;SDS011;2914;42.668;23.346;2022-07-25T11:40:23;8.70;;;7.80;;
5776;SDS011;2914;42.668;23.346;2022-07-25T11:42:52;8.03;;;7.50;;
5776;SDS011;2914;42.668;23.346;2022-07-25T11:45:25;8.47;;;7.67;;
5776;SDS011;2914;42.668;23.346;2022-07-25T11:48:02;7.30;;;6.80;;
5776;SDS011;2914;42.668;23.346;2022-07-25T11:50:34;13.10;;;7.50;;
5776;SDS011;2914;42.668;23.346;2022-07-25T11:53:04;7.73;;;7.13;;
5776;SDS011;2914;42.668;23.346;2022-07-25T11:55:35;8.83;;;8.10;;
5776;SDS011;2914;42.668;23.346;2022-07-25T11:58:06;8.23;;;7.40;;
5776;SDS011;2914;42.668;23.346;2022-07-25T12:00:38;8.07;;;7.27;;
5776;SDS011;2914;42.668;23.346;2022-07-25T12:03:07;12.90;;;8.57;;
5776;SDS011;2914;42.668;23.346;2022-07-25T12:05:37;8.13;;;7.37;;
5776;SDS011;2914;42.668;23.346;2022-07-25T12:08:08;9.80;;;7.60;;
5776;SDS011;2914;42.668;23.346;2022-07-25T12:10:38;7.70;;;7.20;;
5776;SDS011;2914;42.668;23.346;2022-07-25T12:13:09;7.73;;;7.30;;
5776;SDS011;2914;42.668;23.346;2022-07-25T12:15:39;8.57;;;7.77;;
5776;SDS011;2914;42.668;23.346;2022-07-25T12:18:09;7.90;;;7.20;;
5776;SDS011;2914;42.668;23.346;2022-07-25T12:20:39;8.23;;;7.73;;
5776;SDS011;2914;42.668;23.346;2022-07-25T12:23:10;7.80;;;7.20;;
5776;SDS011;2914;42.668;23.346;2022-07-25T12:25:40;8.17;;;7.47;;
5776;SDS011;2914;42.668;23.346;2022-07-25T12:30:47;8.30;;;7.57;;
5776;SDS011;2914;42.668;23.346;2022-07-25T12:33:16;10.30;;;8.27;;
5776;SDS011;2914;42.668;23.346;2022-07-25T12:35:45;7.60;;;7.10;;
5776;SDS011;2914;42.668;23.346;2022-07-25T12:38:14;9.13;;;8.30;;
5776;SDS011;2914;42.668;23.346;2022-07-25T12:40:43;8.20;;;7.60;;
5776;SDS011;2914;42.668;23.346;2022-07-25T12:43:13;8.60;;;8.00;;
5776;SDS011;2914;42.668;23.346;2022-07-25T12:45:50;10.07;;;8.07;;
5776;SDS011;2914;42.668;23.346;2022-07-25T12:48:19;9.00;;;8.40;;
5776;SDS011;2914;42.668;23.346;2022-07-25T12:50:49;8.83;;;8.03;;
5776;SDS011;2914;42.668;23.346;2022-07-25T12:53:18;8.20;;;7.50;;
5776;SDS011;2914;42.668;23.346;2022-07-25T12:55:47;8.07;;;7.37;;
5776;SDS011;2914;42.668;23.346;2022-07-25T12:58:17;10.30;;;8.00;;
5776;SDS011;2914;42.668;23.346;2022-07-25T13:00:46;8.30;;;7.50;;
5776;SDS011;2914;42.668;23.346;2022-07-25T13:03:15;8.10;;;7.43;;
5776;SDS011;2914;42.668;23.346;2022-07-25T13:05:45;8.03;;;7.17;;
5776;SDS011;2914;42.668;23.346;2022-07-25T13:08:14;8.37;;;7.70;;
5776;SDS011;2914;42.668;23.346;2022-07-25T13:10:44;8.30;;;6.70;;
5776;SDS011;2914;42.668;23.346;2022-07-25T13:13:13;7.90;;;7.20;;
5776;SDS011;2914;42.668;23.346;2022-07-25T13:15:42;8.63;;;7.73;;
5776;SDS011;2914;42.668;23.346;2022-07-25T13:18:11;12.57;;;7.47;;
5776;SDS011;2914;42.668;23.346;2022-07-25T13:20:41;15.90;;;7.60;;
5776;SDS011;2914;42.668;23.346;2022-07-25T13:23:10;7.27;;;6.77;;
5776;SDS011;2914;42.668;23.346;2022-07-25T13:25:47;11.40;;;7.53;;
5776;SDS011;2914;42.668;23.346;2022-07-25T13:28:16;7.73;;;7.30;;
5776;SDS011;2914;42.668;23.346;2022-07-25T13:30:47;6.90;;;6.50;;
5776;SDS011;2914;42.668;23.346;2022-07-25T13:33:16;8.10;;;7.43;;
5776;SDS011;2914;42.668;23.346;2022-07-25T13:35:45;7.93;;;7.23;;
5776;SDS011;2914;42.668;23.346;2022-07-25T13:38:14;8.10;;;7.50;;
5776;SDS011;2914;42.668;23.346;2022-07-25T13:40:43;8.13;;;7.63;;
5776;SDS011;2914;42.668;23.346;2022-07-25T13:43:13;11.40;;;7.77;;
5776;SDS011;2914;42.668;23.346;2022-07-25T13:45:42;7.37;;;6.97;;
5776;SDS011;2914;42.668;23.346;2022-07-25T13:48:12;8.23;;;7.60;;
5776;SDS011;2914;42.668;23.346;2022-07-25T13:50:41;12.23;;;7.00;;
5776;SDS011;2914;42.668;23.346;2022-07-25T13:53:10;7.57;;;7.07;;
5776;SDS011;2914;42.668;23.346;2022-07-25T13:55:39;7.03;;;6.63;;
5776;SDS011;2914;42.668;23.346;2022-07-25T13:58:09;7.43;;;6.93;;
5776;SDS011;2914;42.668;23.346;2022-07-25T14:00:38;9.33;;;8.43;;
5776;SDS011;2914;42.668;23.346;2022-07-25T14:03:07;6.87;;;6.43;;
5776;SDS011;2914;42.668;23.346;2022-07-25T14:05:38;10.10;;;7.00;;
5776;SDS011;2914;42.668;23.346;2022-07-25T14:08:07;11.70;;;6.70;;
5776;SDS011;2914;42.668;23.346;2022-07-25T14:10:36;7.40;;;6.80;;
5776;SDS011;2914;42.668;23.346;2022-07-25T14:13:05;7.67;;;6.93;;
5776;SDS011;2914;42.668;23.346;2022-07-25T14:15:34;7.03;;;6.43;;
5776;SDS011;2914;42.668;23.346;2022-07-25T14:18:04;10.60;;;7.00;;
5776;SDS011;2914;42.668;23.346;2022-07-25T14:20:34;7.43;;;6.83;;
5776;SDS011;2914;42.668;23.346;2022-07-25T14:23:03;7.53;;;6.93;;
5776;SDS011;2914;42.668;23.346;2022-07-25T14:25:32;7.67;;;7.17;;
5776;SDS011;2914;42.668;23.346;2022-07-25T14:28:02;8.43;;;7.83;;
5776;SDS011;2914;42.668;23.346;2022-07-25T14:30:31;8.60;;;7.90;;
5776;SDS011;2914;42.668;23.346;2022-07-25T14:33:00;15.07;;;8.00;;
5776;SDS011;2914;42.668;23.346;2022-07-25T14:35:29;8.30;;;7.40;;
5776;SDS011;2914;42.668;23.346;2022-07-25T14:37:58;7.73;;;7.23;;
5776;SDS011;2914;42.668;23.346;2022-07-25T14:40:28;9.07;;;8.37;;
5776;SDS011;2914;42.668;23.346;2022-07-25T14:42:57;9.17;;;8.37;;
5776;SDS011;2914;42.668;23.346;2022-07-25T14:45:26;8.27;;;7.67;;
5776;SDS011;2914;42.668;23.346;2022-07-25T14:47:55;8.40;;;7.80;;
5776;SDS011;2914;42.668;23.346;2022-07-25T14:50:24;8.83;;;8.13;;
5776;SDS011;2914;42.668;23.346;2022-07-25T14:53:02;9.23;;;8.53;;
5776;SDS011;2914;42.668;23.346;2022-07-25T14:55:31;8.53;;;7.93;;
5776;SDS011;2914;42.668;23.346;2022-07-25T14:58:00;9.43;;;8.73;;
5776;SDS011;2914;42.668;23.346;2022-07-25T15:00:29;11.80;;;8.20;;
5776;SDS011;2914;42.668;23.346;2022-07-25T15:02:59;12.63;;;9.00;;
5776;SDS011;2914;42.668;23.346;2022-07-25T15:05:36;8.67;;;8.07;;
5776;SDS011;2914;42.668;23.346;2022-07-25T15:08:07;8.63;;;8.00;;
5776;SDS011;2914;42.668;23.346;2022-07-25T15:10:44;9.17;;;8.37;;